sensor_id;sensor_type;location;lat;lon;timestamp;P1;durP1;ratioP1;P2;durP2;ratioP2
45322;SDS011;31382;50.200;8.674;2022-07-29T00:04:59;6.57;;;0.32;;
45322;SDS011;31382;50.200;8.674;2022-07-29T00:10:01;2.45;;;0.17;;
45322;SDS011;31382;50.200;8.674;2022-07-29T00:15:05;6.05;;;0.40;;
45322;SDS011;31382;50.200;8.674;2022-07-29T00:20:07;2.58;;;0.30;;
45322;SDS011;31382;50.200;8.674;2022-07-29T00:25:09;1.35;;;0.30;;
45322;SDS011;31382;50.200;8.674;2022-07-29T00:30:11;2.83;;;0.50;;
45322;SDS011;31382;50.200;8.674;2022-07-29T00:35:13;2.33;;;0.40;;
45322;SDS011;31382;50.200;8.674;2022-07-29T00:40:33;2.80;;;0.30;;
45322;SDS011;31382;50.200;8.674;2022-07-29T00:45:35;4.65;;;0.30;;
45322;SDS011;31382;50.200;8.674;2022-07-29T00:50:37;2.17;;;0.47;;
45322;SDS011;31382;50.200;8.674;2022-07-29T00:55:39;2.65;;;0.30;;
45322;SDS011;31382;50.200;8.674;2022-07-29T01:00:41;1.30;;;0.30;;
45322;SDS011;31382;50.200;8.674;2022-07-29T01:05:45;3.17;;;0.40;;
45322;SDS011;31382;50.200;8.674;2022-07-29T01:10:51;2.53;;;0.40;;
45322;SDS011;31382;50.200;8.674;2022-07-29T01:15:56;6.57;;;0.63;;
45322;SDS011;31382;50.200;8.674;2022-07-29T01:21:15;3.03;;;0.43;;
45322;SDS011;31382;50.200;8.674;2022-07-29T01:26:49;0.93;;;0.30;;
45322;SDS011;31382;50.200;8.674;2022-07-29T01:32:04;3.50;;;0.60;;
45322;SDS011;31382;50.200;8.674;2022-07-29T01:37:32;3.75;;;0.40;;
45322;SDS011;31382;50.200;8.674;2022-07-29T01:42:44;1.27;;;0.40;;
45322;SDS011;31382;50.200;8.674;2022-07-29T01:48:01;1.30;;;0.30;;
45322;SDS011;31382;50.200;8.674;2022-07-29T01:53:09;2.17;;;0.40;;
45322;SDS011;31382;50.200;8.674;2022-07-29T01:58:13;1.90;;;0.35;;
45322;SDS011;31382;50.200;8.674;2022-07-29T02:03:20;1.33;;;0.40;;
45322;SDS011;31382;50.200;8.674;2022-07-29T02:08:23;6.85;;;0.50;;
45322;SDS011;31382;50.200;8.674;2022-07-29T02:13:26;2.80;;;0.40;;
45322;SDS011;31382;50.200;8.674;2022-07-29T02:18:30;8.27;;;0.73;;
45322;SDS011;31382;50.200;8.674;2022-07-29T02:23:32;2.72;;;0.40;;
45322;SDS011;31382;50.200;8.674;2022-07-29T02:28:51;1.30;;;0.40;;
45322;SDS011;31382;50.200;8.674;2022-07-29T02:33:57;0.73;;;0.30;;
45322;SDS011;31382;50.200;8.674;2022-07-29T02:39:00;1.67;;;0.40;;
45322;SDS011;31382;50.200;8.674;2022-07-29T02:44:12;1.40;;;0.45;;
45322;SDS011;31382;50.200;8.674;2022-07-29T02:49:38;2.53;;;0.60;;
45322;SDS011;31382;50.200;8.674;2022-07-29T02:55:00;1.05;;;0.40;;
45322;SDS011;31382;50.200;8.674;2022-07-29T03:00:08;0.60;;;0.40;;
45322;SDS011;31382;50.200;8.674;2022-07-29T03:05:15;4.13;;;0.40;;
45322;SDS011;31382;50.200;8.674;2022-07-29T03:10:20;5.90;;;0.60;;
45322;SDS011;31382;50.200;8.674;2022-07-29T03:15:22;1.80;;;0.50;;
45322;SDS011;31382;50.200;8.674;2022-07-29T03:20:25;2.50;;;0.45;;
45322;SDS011;31382;50.200;8.674;2022-07-29T03:25:27;1.10;;;0.30;;
45322;SDS011;31382;50.200;8.674;2022-07-29T03:30:29;1.45;;;0.50;;
45322;SDS011;31382;50.200;8.674;2022-07-29T03:35:32;1.73;;;0.93;;
45322;SDS011;31382;50.200;8.674;2022-07-29T03:40:35;3.90;;;0.38;;
45322;SDS011;31382;50.200;8.674;2022-07-29T03:45:42;5.43;;;0.70;;
45322;SDS011;31382;50.200;8.674;2022-07-29T03:50:45;3.60;;;0.60;;
45322;SDS011;31382;50.200;8.674;2022-07-29T03:55:48;2.08;;;0.45;;
45322;SDS011;31382;50.200;8.674;2022-07-29T04:00:54;1.17;;;0.50;;
45322;SDS011;31382;50.200;8.674;2022-07-29T04:06:03;1.65;;;0.50;;
45322;SDS011;31382;50.200;8.674;2022-07-29T04:11:09;3.92;;;0.50;;
45322;SDS011;31382;50.200;8.674;2022-07-29T04:16:11;2.72;;;0.50;;
45322;SDS011;31382;50.200;8.674;2022-07-29T04:21:12;0.93;;;0.40;;
45322;SDS011;31382;50.200;8.674;2022-07-29T04:26:14;4.25;;;0.30;;
45322;SDS011;31382;50.200;8.674;2022-07-29T04:31:16;2.60;;;0.80;;
45322;SDS011;31382;50.200;8.674;2022-07-29T04:36:25;3.05;;;0.70;;
45322;SDS011;31382;50.200;8.674;2022-07-29T04:41:30;1.50;;;0.47;;
45322;SDS011;31382;50.200;8.674;2022-07-29T04:46:33;4.72;;;0.32;;
45322;SDS011;31382;50.200;8.674;2022-07-29T04:51:35;3.38;;;0.40;;
45322;SDS011;31382;50.200;8.674;2022-07-29T04:56:37;4.47;;;0.47;;
45322;SDS011;31382;50.200;8.674;2022-07-29T05:01:39;3.88;;;0.45;;
45322;SDS011;31382;50.200;8.674;2022-07-29T05:06:41;2.80;;;0.50;;
45322;SDS011;31382;50.200;8.674;2022-07-29T05:11:42;4.72;;;0.50;;
45322;SDS011;31382;50.200;8.674;2022-07-29T05:16:44;8.40;;;0.75;;
45322;SDS011;31382;50.200;8.674;2022-07-29T05:21:46;3.58;;;0.55;;
45322;SDS011;31382;50.200;8.674;2022-07-29T05:26:47;2.22;;;0.80;;
45322;SDS011;31382;50.200;8.674;2022-07-29T05:31:49;2.35;;;1.08;;
45322;SDS011;31382;50.200;8.674;2022-07-29T05:36:52;4.18;;;0.52;;
45322;SDS011;31382;50.200;8.674;2022-07-29T05:41:54;4.05;;;0.60;;
45322;SDS011;31382;50.200;8.674;2022-07-29T05:46:56;2.80;;;0.50;;
45322;SDS011;31382;50.200;8.674;2022-07-29T05:51:57;3.03;;;0.80;;
45322;SDS011;31382;50.200;8.674;2022-07-29T05:56:59;3.28;;;0.50;;
45322;SDS011;31382;50.200;8.674;2022-07-29T06:02:01;2.38;;;0.60;;
45322;SDS011;31382;50.200;8.674;2022-07-29T06:07:02;0.73;;;0.40;;
45322;SDS011;31382;50.200;8.674;2022-07-29T06:12:05;5.30;;;1.25;;
45322;SDS011;31382;50.200;8.674;2022-07-29T06:17:06;2.15;;;0.50;;
45322;SDS011;31382;50.200;8.674;2022-07-29T06:22:08;1.30;;;0.60;;
45322;SDS011;31382;50.200;8.674;2022-07-29T06:27:10;3.88;;;0.50;;
45322;SDS011;31382;50.200;8.674;2022-07-29T06:32:12;1.85;;;0.45;;
45322;SDS011;31382;50.200;8.674;2022-07-29T06:37:14;2.38;;;0.55;;
45322;SDS011;31382;50.200;8.674;2022-07-29T06:42:16;1.35;;;0.50;;
45322;SDS011;31382;50.200;8.674;2022-07-29T06:47:17;2.05;;;0.50;;
45322;SDS011;31382;50.200;8.674;2022-07-29T06:52:19;1.17;;;0.57;;
45322;SDS011;31382;50.200;8.674;2022-07-29T06:57:21;3.30;;;0.60;;
45322;SDS011;31382;50.200;8.674;2022-07-29T07:02:23;4.35;;;0.95;;
45322;SDS011;31382;50.200;8.674;2022-07-29T07:07:25;4.00;;;0.60;;
45322;SDS011;31382;50.200;8.674;2022-07-29T07:12:27;1.30;;;0.40;;
45322;SDS011;31382;50.200;8.674;2022-07-29T07:17:28;1.60;;;0.60;;
45322;SDS011;31382;50.200;8.674;2022-07-29T07:22:30;0.90;;;0.50;;
45322;SDS011;31382;50.200;8.674;2022-07-29T07:27:39;2.67;;;0.73;;
45322;SDS011;31382;50.200;8.674;2022-07-29T07:32:40;3.90;;;0.60;;
45322;SDS011;31382;50.200;8.674;2022-07-29T07:37:42;1.00;;;0.70;;
45322;SDS011;31382;50.200;8.674;2022-07-29T07:42:44;2.60;;;0.45;;
45322;SDS011;31382;50.200;8.674;2022-07-29T07:47:46;1.38;;;0.40;;
45322;SDS011;31382;50.200;8.674;2022-07-29T07:52:51;1.63;;;0.57;;
45322;SDS011;31382;50.200;8.674;2022-07-29T07:57:55;2.67;;;0.52;;
45322;SDS011;31382;50.200;8.674;2022-07-29T08:02:57;3.60;;;0.40;;
45322;SDS011;31382;50.200;8.674;2022-07-29T08:07:59;2.17;;;0.55;;
45322;SDS011;31382;50.200;8.674;2022-07-29T08:13:04;2.88;;;0.50;;
45322;SDS011;31382;50.200;8.674;2022-07-29T08:18:07;3.00;;;0.40;;
45322;SDS011;31382;50.200;8.674;2022-07-29T08:23:09;1.73;;;0.50;;
45322;SDS011;31382;50.200;8.674;2022-07-29T08:28:10;4.05;;;0.60;;
45322;SDS011;31382;50.200;8.674;2022-07-29T08:33:12;2.45;;;0.52;;
45322;SDS011;31382;50.200;8.674;2022-07-29T08:38:14;7.28;;;0.50;;
45322;SDS011;31382;50.200;8.674;2022-07-29T08:43:16;2.85;;;0.60;;
45322;SDS011;31382;50.200;8.674;2022-07-29T08:48:18;6.72;;;0.52;;
45322;SDS011;31382;50.200;8.674;2022-07-29T08:53:21;0.70;;;0.50;;
45322;SDS011;31382;50.200;8.674;2022-07-29T08:58:31;1.08;;;0.70;;
45322;SDS011;31382;50.200;8.674;2022-07-29T09:03:37;1.60;;;0.40;;
45322;SDS011;31382;50.200;8.674;2022-07-29T09:08:40;1.75;;;0.65;;
45322;SDS011;31382;50.200;8.674;2022-07-29T09:13:44;2.97;;;0.50;;
45322;SDS011;31382;50.200;8.674;2022-07-29T09:18:45;2.10;;;0.55;;
45322;SDS011;31382;50.200;8.674;2022-07-29T09:29:09;6.25;;;0.60;;
45322;SDS011;31382;50.200;8.674;2022-07-29T09:34:22;6.22;;;0.68;;
45322;SDS011;31382;50.200;8.674;2022-07-29T09:39:27;1.92;;;0.60;;
45322;SDS011;31382;50.200;8.674;2022-07-29T09:44:46;1.42;;;0.50;;
45322;SDS011;31382;50.200;8.674;2022-07-29T09:55:07;3.53;;;0.50;;
45322;SDS011;31382;50.200;8.674;2022-07-29T10:00:15;4.82;;;0.80;;
45322;SDS011;31382;50.200;8.674;2022-07-29T10:05:22;1.67;;;0.57;;
45322;SDS011;31382;50.200;8.674;2022-07-29T10:10:26;2.22;;;0.50;;
45322;SDS011;31382;50.200;8.674;2022-07-29T10:15:30;1.15;;;0.40;;
45322;SDS011;31382;50.200;8.674;2022-07-29T10:20:34;1.85;;;0.68;;
45322;SDS011;31382;50.200;8.674;2022-07-29T10:25:36;1.88;;;0.60;;
45322;SDS011;31382;50.200;8.674;2022-07-29T10:30:38;3.13;;;0.60;;
45322;SDS011;31382;50.200;8.674;2022-07-29T10:36:02;2.88;;;0.50;;
45322;SDS011;31382;50.200;8.674;2022-07-29T10:41:43;1.08;;;0.63;;
45322;SDS011;31382;50.200;8.674;2022-07-29T10:47:03;2.65;;;0.47;;
45322;SDS011;31382;50.200;8.674;2022-07-29T10:52:06;5.85;;;0.55;;
45322;SDS011;31382;50.200;8.674;2022-07-29T10:57:14;2.53;;;0.47;;
45322;SDS011;31382;50.200;8.674;2022-07-29T11:24:30;5.32;;;0.60;;
45322;SDS011;31382;50.200;8.674;2022-07-29T11:29:35;4.05;;;0.57;;
45322;SDS011;31382;50.200;8.674;2022-07-29T11:40:18;1.17;;;0.70;;
45322;SDS011;31382;50.200;8.674;2022-07-29T11:45:22;4.40;;;0.68;;
45322;SDS011;31382;50.200;8.674;2022-07-29T11:50:45;2.00;;;0.50;;
45322;SDS011;31382;50.200;8.674;2022-07-29T11:55:48;1.95;;;0.50;;
45322;SDS011;31382;50.200;8.674;2022-07-29T12:00:58;1.02;;;0.55;;
45322;SDS011;31382;50.200;8.674;2022-07-29T12:06:14;3.20;;;0.60;;
45322;SDS011;31382;50.200;8.674;2022-07-29T12:11:19;1.85;;;0.70;;
45322;SDS011;31382;50.200;8.674;2022-07-29T12:16:23;1.38;;;0.68;;
45322;SDS011;31382;50.200;8.674;2022-07-29T12:21:47;1.45;;;0.60;;
45322;SDS011;31382;50.200;8.674;2022-07-29T12:26:57;2.65;;;0.60;;
45322;SDS011;31382;50.200;8.674;2022-07-29T12:32:00;2.92;;;0.45;;
45322;SDS011;31382;50.200;8.674;2022-07-29T12:37:02;1.02;;;0.50;;
45322;SDS011;31382;50.200;8.674;2022-07-29T12:42:14;3.10;;;0.60;;
45322;SDS011;31382;50.200;8.674;2022-07-29T12:47:19;1.15;;;0.50;;
45322;SDS011;31382;50.200;8.674;2022-07-29T12:52:25;1.70;;;0.60;;
45322;SDS011;31382;50.200;8.674;2022-07-29T12:57:31;0.75;;;0.50;;
45322;SDS011;31382;50.200;8.674;2022-07-29T13:02:34;1.17;;;0.55;;
45322;SDS011;31382;50.200;8.674;2022-07-29T13:07:37;3.50;;;1.35;;
45322;SDS011;31382;50.200;8.674;2022-07-29T13:13:04;2.67;;;0.70;;
45322;SDS011;31382;50.200;8.674;2022-07-29T13:18:30;3.72;;;0.75;;
45322;SDS011;31382;50.200;8.674;2022-07-29T13:23:33;3.50;;;0.50;;
45322;SDS011;31382;50.200;8.674;2022-07-29T13:28:38;7.20;;;0.68;;
45322;SDS011;31382;50.200;8.674;2022-07-29T13:33:44;1.00;;;0.70;;
45322;SDS011;31382;50.200;8.674;2022-07-29T13:38:46;1.80;;;0.60;;
45322;SDS011;31382;50.200;8.674;2022-07-29T13:43:47;3.88;;;0.57;;
45322;SDS011;31382;50.200;8.674;2022-07-29T13:48:50;4.40;;;0.88;;
45322;SDS011;31382;50.200;8.674;2022-07-29T13:53:52;2.33;;;0.70;;
45322;SDS011;31382;50.200;8.674;2022-07-29T13:58:53;4.30;;;0.80;;
45322;SDS011;31382;50.200;8.674;2022-07-29T14:03:55;3.15;;;0.85;;
45322;SDS011;31382;50.200;8.674;2022-07-29T14:08:57;1.58;;;0.88;;
45322;SDS011;31382;50.200;8.674;2022-07-29T14:13:58;4.47;;;0.73;;
45322;SDS011;31382;50.200;8.674;2022-07-29T14:19:00;0.68;;;0.40;;
45322;SDS011;31382;50.200;8.674;2022-07-29T14:24:02;2.90;;;0.60;;
45322;SDS011;31382;50.200;8.674;2022-07-29T14:29:17;1.17;;;0.50;;
45322;SDS011;31382;50.200;8.674;2022-07-29T14:34:18;2.78;;;0.45;;
45322;SDS011;31382;50.200;8.674;2022-07-29T14:39:21;2.40;;;0.70;;
45322;SDS011;31382;50.200;8.674;2022-07-29T14:44:24;3.05;;;0.68;;
45322;SDS011;31382;50.200;8.674;2022-07-29T14:49:30;3.00;;;0.90;;
45322;SDS011;31382;50.200;8.674;2022-07-29T14:54:32;0.98;;;0.80;;
45322;SDS011;31382;50.200;8.674;2022-07-29T14:59:34;5.80;;;1.00;;
45322;SDS011;31382;50.200;8.674;2022-07-29T15:04:35;2.58;;;0.93;;
45322;SDS011;31382;50.200;8.674;2022-07-29T15:09:37;0.73;;;0.68;;
45322;SDS011;31382;50.200;8.674;2022-07-29T15:14:49;2.08;;;0.50;;
45322;SDS011;31382;50.200;8.674;2022-07-29T15:19:51;1.65;;;0.50;;
45322;SDS011;31382;50.200;8.674;2022-07-29T15:24:53;1.92;;;0.40;;
45322;SDS011;31382;50.200;8.674;2022-07-29T15:29:54;2.00;;;0.52;;
45322;SDS011;31382;50.200;8.674;2022-07-29T15:34:56;0.75;;;0.40;;
45322;SDS011;31382;50.200;8.674;2022-07-29T15:39:58;4.00;;;0.50;;
45322;SDS011;31382;50.200;8.674;2022-07-29T15:45:00;0.85;;;0.52;;
45322;SDS011;31382;50.200;8.674;2022-07-29T15:50:04;3.33;;;0.60;;
45322;SDS011;31382;50.200;8.674;2022-07-29T15:55:07;3.72;;;0.65;;
45322;SDS011;31382;50.200;8.674;2022-07-29T16:00:10;2.20;;;0.70;;
45322;SDS011;31382;50.200;8.674;2022-07-29T16:05:12;1.48;;;0.60;;
45322;SDS011;31382;50.200;8.674;2022-07-29T16:10:14;4.05;;;0.73;;
45322;SDS011;31382;50.200;8.674;2022-07-29T16:15:16;2.75;;;0.60;;
45322;SDS011;31382;50.200;8.674;2022-07-29T16:20:17;2.67;;;0.82;;
45322;SDS011;31382;50.200;8.674;2022-07-29T16:25:22;1.08;;;0.57;;
45322;SDS011;31382;50.200;8.674;2022-07-29T16:30:44;2.35;;;0.52;;
45322;SDS011;31382;50.200;8.674;2022-07-29T16:35:45;4.43;;;0.80;;
45322;SDS011;31382;50.200;8.674;2022-07-29T16:40:47;1.88;;;0.90;;
45322;SDS011;31382;50.200;8.674;2022-07-29T16:45:49;2.75;;;1.25;;
45322;SDS011;31382;50.200;8.674;2022-07-29T16:50:50;1.60;;;0.90;;
45322;SDS011;31382;50.200;8.674;2022-07-29T16:55:52;8.20;;;1.48;;
45322;SDS011;31382;50.200;8.674;2022-07-29T17:00:54;5.38;;;1.45;;
45322;SDS011;31382;50.200;8.674;2022-07-29T17:05:56;11.65;;;1.67;;
45322;SDS011;31382;50.200;8.674;2022-07-29T17:10:58;2.13;;;1.55;;
45322;SDS011;31382;50.200;8.674;2022-07-29T17:15:59;5.18;;;1.40;;
45322;SDS011;31382;50.200;8.674;2022-07-29T17:21:01;5.82;;;2.05;;
45322;SDS011;31382;50.200;8.674;2022-07-29T17:26:03;6.20;;;1.70;;
45322;SDS011;31382;50.200;8.674;2022-07-29T17:31:04;2.30;;;1.10;;
45322;SDS011;31382;50.200;8.674;2022-07-29T17:36:06;3.20;;;1.10;;
45322;SDS011;31382;50.200;8.674;2022-07-29T17:41:24;2.97;;;1.42;;
45322;SDS011;31382;50.200;8.674;2022-07-29T17:46:26;2.03;;;1.48;;
45322;SDS011;31382;50.200;8.674;2022-07-29T17:51:28;3.38;;;1.27;;
45322;SDS011;31382;50.200;8.674;2022-07-29T17:56:29;2.45;;;1.42;;
45322;SDS011;31382;50.200;8.674;2022-07-29T18:01:31;3.55;;;1.13;;
45322;SDS011;31382;50.200;8.674;2022-07-29T18:06:33;3.40;;;1.33;;
45322;SDS011;31382;50.200;8.674;2022-07-29T18:11:35;2.05;;;1.02;;
45322;SDS011;31382;50.200;8.674;2022-07-29T18:16:39;1.20;;;1.00;;
45322;SDS011;31382;50.200;8.674;2022-07-29T18:21:40;1.95;;;1.55;;
45322;SDS011;31382;50.200;8.674;2022-07-29T18:26:54;3.55;;;0.90;;
45322;SDS011;31382;50.200;8.674;2022-07-29T18:31:57;2.60;;;0.88;;
45322;SDS011;31382;50.200;8.674;2022-07-29T18:36:59;4.47;;;1.02;;
45322;SDS011;31382;50.200;8.674;2022-07-29T18:42:02;2.83;;;1.13;;
45322;SDS011;31382;50.200;8.674;2022-07-29T18:47:04;3.55;;;1.17;;
45322;SDS011;31382;50.200;8.674;2022-07-29T18:52:06;2.33;;;1.30;;
45322;SDS011;31382;50.200;8.674;2022-07-29T18:57:08;2.47;;;0.75;;
45322;SDS011;31382;50.200;8.674;2022-07-29T19:02:29;2.72;;;0.80;;
45322;SDS011;31382;50.200;8.674;2022-07-29T19:07:32;2.03;;;1.23;;
45322;SDS011;31382;50.200;8.674;2022-07-29T19:12:34;3.15;;;1.13;;
45322;SDS011;31382;50.200;8.674;2022-07-29T19:17:35;7.95;;;1.38;;
45322;SDS011;31382;50.200;8.674;2022-07-29T19:22:38;3.63;;;1.20;;
45322;SDS011;31382;50.200;8.674;2022-07-29T19:27:39;6.57;;;1.45;;
45322;SDS011;31382;50.200;8.674;2022-07-29T19:32:41;3.25;;;1.50;;
45322;SDS011;31382;50.200;8.674;2022-07-29T19:37:43;2.78;;;1.27;;
45322;SDS011;31382;50.200;8.674;2022-07-29T19:42:44;2.50;;;1.10;;
45322;SDS011;31382;50.200;8.674;2022-07-29T19:47:48;4.50;;;1.10;;
45322;SDS011;31382;50.200;8.674;2022-07-29T19:52:50;4.35;;;0.98;;
45322;SDS011;31382;50.200;8.674;2022-07-29T19:57:52;2.03;;;1.10;;
45322;SDS011;31382;50.200;8.674;2022-07-29T20:02:55;2.65;;;1.20;;
45322;SDS011;31382;50.200;8.674;2022-07-29T20:07:57;2.60;;;1.10;;
45322;SDS011;31382;50.200;8.674;2022-07-29T20:12:59;1.95;;;1.02;;
45322;SDS011;31382;50.200;8.674;2022-07-29T20:18:01;1.40;;;0.90;;
45322;SDS011;31382;50.200;8.674;2022-07-29T20:23:03;3.90;;;1.00;;
45322;SDS011;31382;50.200;8.674;2022-07-29T20:28:05;2.70;;;1.02;;
45322;SDS011;31382;50.200;8.674;2022-07-29T20:33:07;2.15;;;1.30;;
45322;SDS011;31382;50.200;8.674;2022-07-29T20:38:09;1.27;;;0.93;;
45322;SDS011;31382;50.200;8.674;2022-07-29T20:43:16;3.38;;;1.30;;
45322;SDS011;31382;50.200;8.674;2022-07-29T20:48:18;2.42;;;0.90;;
45322;SDS011;31382;50.200;8.674;2022-07-29T20:53:19;2.17;;;1.30;;
45322;SDS011;31382;50.200;8.674;2022-07-29T20:58:22;2.50;;;1.58;;
45322;SDS011;31382;50.200;8.674;2022-07-29T21:03:23;2.05;;;0.98;;
45322;SDS011;31382;50.200;8.674;2022-07-29T21:08:25;1.08;;;0.90;;
45322;SDS011;31382;50.200;8.674;2022-07-29T21:13:27;1.42;;;0.80;;
45322;SDS011;31382;50.200;8.674;2022-07-29T21:18:29;2.67;;;1.20;;
45322;SDS011;31382;50.200;8.674;2022-07-29T21:23:33;1.67;;;0.95;;
45322;SDS011;31382;50.200;8.674;2022-07-29T21:28:35;4.18;;;1.35;;
45322;SDS011;31382;50.200;8.674;2022-07-29T21:33:40;1.63;;;1.00;;
45322;SDS011;31382;50.200;8.674;2022-07-29T21:38:44;1.50;;;0.90;;
45322;SDS011;31382;50.200;8.674;2022-07-29T21:43:45;1.42;;;1.05;;
45322;SDS011;31382;50.200;8.674;2022-07-29T21:48:47;1.98;;;1.73;;
45322;SDS011;31382;50.200;8.674;2022-07-29T21:53:49;1.27;;;1.13;;
45322;SDS011;31382;50.200;8.674;2022-07-29T21:58:53;4.20;;;1.52;;
45322;SDS011;31382;50.200;8.674;2022-07-29T22:03:55;3.63;;;1.67;;
45322;SDS011;31382;50.200;8.674;2022-07-29T22:08:57;2.50;;;1.38;;
45322;SDS011;31382;50.200;8.674;2022-07-29T22:13:59;3.15;;;1.42;;
45322;SDS011;31382;50.200;8.674;2022-07-29T22:19:00;3.88;;;2.50;;
45322;SDS011;31382;50.200;8.674;2022-07-29T22:24:03;2.38;;;1.70;;
45322;SDS011;31382;50.200;8.674;2022-07-29T22:29:05;4.60;;;1.92;;
45322;SDS011;31382;50.200;8.674;2022-07-29T22:34:07;3.03;;;1.77;;
45322;SDS011;31382;50.200;8.674;2022-07-29T22:39:12;2.70;;;1.58;;
45322;SDS011;31382;50.200;8.674;2022-07-29T22:44:16;4.82;;;1.30;;
45322;SDS011;31382;50.200;8.674;2022-07-29T22:49:18;2.60;;;1.33;;
45322;SDS011;31382;50.200;8.674;2022-07-29T22:54:20;4.65;;;1.67;;
45322;SDS011;31382;50.200;8.674;2022-07-29T22:59:22;2.75;;;1.30;;
45322;SDS011;31382;50.200;8.674;2022-07-29T23:04:23;5.75;;;1.92;;
45322;SDS011;31382;50.200;8.674;2022-07-29T23:09:25;3.65;;;2.10;;
45322;SDS011;31382;50.200;8.674;2022-07-29T23:14:27;8.27;;;2.35;;
45322;SDS011;31382;50.200;8.674;2022-07-29T23:19:29;2.30;;;1.65;;
45322;SDS011;31382;50.200;8.674;2022-07-29T23:24:30;4.95;;;1.98;;
45322;SDS011;31382;50.200;8.674;2022-07-29T23:29:32;3.92;;;1.63;;
45322;SDS011;31382;50.200;8.674;2022-07-29T23:34:37;4.35;;;2.00;;
45322;SDS011;31382;50.200;8.674;2022-07-29T23:39:38;6.00;;;1.73;;
45322;SDS011;31382;50.200;8.674;2022-07-29T23:44:40;2.83;;;1.98;;
45322;SDS011;31382;50.200;8.674;2022-07-29T23:49:42;4.97;;;1.70;;
45322;SDS011;31382;50.200;8.674;2022-07-29T23:54:44;8.48;;;2.15;;
45322;SDS011;31382;50.200;8.674;2022-07-29T23:59:45;2.58;;;1.35;;
